Tamarack, Idaho
Current Conditions -  °F | °C
As of 1:51 AM on Friday 24 Oct 2014 (Local Time) from KMYL Reporting Station
Overcast Overcast  
Wind Chill: 41°   Ceiling: 5500
Heat Index: 41°   Visibility: 10mi
Dew Point: 39°   Wind: 3mph
Humidity: 93%   Direction: 330°NNW
Pressure: 30.08"   Gusts: NA
Location:  44.7667°N, 116.117°W
Report Text: KMYL 240751Z AUTO 33003KT 10SM BKN055 OVC070 05/04 A3008 RMK AO2 RAE00B17E36 SLP184 P0001 T00500039
Loading
Personal Weather Stations






























Interactive Weather Map
Tropical Storm Tracking
New forecast layout! Learn more

10-Day Weather Forecast

Advertisements
Track Severe Weather on mobile